createdAt,value
2023-04-16T00:00:56.432Z,8.48
2023-04-16T00:03:23.863Z,8.46
2023-04-16T00:05:50.773Z,8.50
2023-04-16T00:08:17.530Z,8.48
2023-04-16T00:10:43.974Z,8.55
2023-04-16T00:13:10.588Z,8.57
2023-04-16T00:15:37.028Z,8.46
2023-04-16T00:18:03.794Z,8.49
2023-04-16T00:20:30.270Z,8.50
2023-04-16T00:22:56.789Z,8.57
2023-04-16T00:25:23.425Z,8.62
2023-04-16T00:27:49.909Z,8.61
2023-04-16T00:30:16.802Z,8.63
2023-04-16T00:32:43.312Z,8.61
2023-04-16T00:35:09.819Z,8.58
2023-04-16T00:37:36.275Z,8.52
2023-04-16T00:40:02.910Z,8.48
2023-04-16T00:42:29.641Z,8.43
2023-04-16T00:44:56.106Z,8.53
2023-04-16T00:47:22.962Z,8.43
2023-04-16T00:49:50.170Z,8.50
2023-04-16T00:52:17.130Z,8.55
2023-04-16T00:54:43.818Z,8.50
2023-04-16T00:57:10.819Z,8.49
2023-04-16T00:59:37.451Z,8.46
2023-04-16T01:02:04.048Z,8.51
2023-04-16T01:04:31.410Z,8.58
2023-04-16T01:06:58.028Z,8.55
2023-04-16T01:09:24.616Z,8.58
2023-04-16T01:11:51.243Z,8.62
2023-04-16T01:14:18.003Z,8.62
2023-04-16T01:16:44.451Z,8.55
2023-04-16T01:19:11.181Z,8.38
2023-04-16T01:21:37.935Z,8.41
2023-04-16T01:24:04.963Z,8.34
2023-04-16T01:26:32.368Z,8.40
2023-04-16T01:29:00.328Z,8.36
2023-04-16T01:31:27.036Z,8.45
2023-04-16T01:34:06.786Z,8.54
2023-04-16T01:36:34.772Z,8.45
2023-04-16T01:39:01.292Z,8.48
2023-04-16T01:41:27.867Z,8.44
2023-04-16T01:43:54.292Z,8.39
2023-04-16T01:46:27.117Z,8.36
2023-04-16T01:48:54.923Z,8.36
2023-04-16T01:51:22.031Z,8.21
2023-04-16T01:54:09.281Z,8.24
2023-04-16T01:56:55.910Z,8.19
2023-04-16T01:59:42.681Z,8.30
2023-04-16T02:02:30.270Z,8.36
2023-04-16T02:05:17.130Z,8.23
2023-04-16T02:08:03.709Z,8.23
2023-04-16T02:10:30.434Z,8.30
2023-04-16T02:12:57.509Z,8.38
2023-04-16T02:15:25.225Z,8.37
2023-04-16T02:17:56.563Z,8.38
2023-04-16T02:20:24.646Z,8.41
2023-04-16T02:22:54.839Z,8.44
2023-04-16T02:25:24.193Z,8.39
2023-04-16T02:27:53.187Z,8.36
2023-04-16T02:30:38.135Z,8.34
2023-04-16T02:33:07.377Z,8.37
2023-04-16T02:35:35.333Z,8.38
2023-04-16T02:38:02.581Z,8.40
2023-04-16T02:40:30.459Z,8.44
2023-04-16T02:42:57.859Z,8.42
2023-04-16T02:45:24.789Z,8.25
2023-04-16T02:47:51.582Z,8.23
2023-04-16T02:50:18.787Z,8.17
2023-04-16T02:52:45.406Z,8.13
2023-04-16T02:55:12.079Z,8.14
2023-04-16T02:57:38.581Z,8.11
2023-04-16T03:00:05.812Z,8.12
2023-04-16T03:02:32.639Z,8.24
2023-04-16T03:04:59.303Z,8.25
2023-04-16T03:07:26.274Z,8.29
2023-04-16T03:09:52.842Z,8.30
2023-04-16T03:12:19.321Z,8.38
2023-04-16T03:14:46.180Z,8.39
2023-04-16T03:17:12.658Z,8.40
2023-04-16T03:19:39.448Z,8.41
2023-04-16T03:22:06.190Z,8.34
2023-04-16T03:24:33.678Z,8.34
2023-04-16T03:27:01.996Z,8.38
2023-04-16T03:29:28.911Z,8.41
2023-04-16T03:31:56.784Z,8.44
2023-04-16T03:34:23.573Z,8.41
2023-04-16T03:36:50.241Z,8.38
2023-04-16T03:39:17.158Z,8.42
2023-04-16T03:41:43.586Z,8.46
2023-04-16T03:44:10.353Z,8.42
2023-04-16T03:46:36.899Z,8.48
2023-04-16T03:49:03.724Z,8.46
2023-04-16T03:51:30.821Z,8.40
2023-04-16T03:53:57.548Z,8.25
2023-04-16T03:56:25.656Z,8.36
2023-04-16T03:58:53.014Z,8.39
2023-04-16T04:01:19.537Z,8.43
2023-04-16T04:03:46.730Z,8.40
2023-04-16T04:06:14.955Z,8.40
2023-04-16T04:08:41.491Z,8.40
2023-04-16T04:11:08.350Z,8.41
2023-04-16T04:13:35.714Z,8.42
2023-04-16T04:16:03.626Z,8.42
2023-04-16T04:18:30.144Z,8.45
2023-04-16T04:20:57.251Z,8.44
2023-04-16T04:23:27.502Z,8.37
2023-04-16T04:25:54.106Z,8.39
2023-04-16T04:28:20.843Z,8.36
2023-04-16T04:30:47.862Z,8.39
2023-04-16T04:33:14.341Z,8.38
2023-04-16T04:35:41.608Z,8.42
2023-04-16T04:38:08.883Z,8.38
2023-04-16T04:40:35.730Z,8.40
2023-04-16T04:43:03.402Z,8.26
2023-04-16T04:45:31.817Z,8.40
2023-04-16T04:47:58.841Z,8.37
2023-04-16T04:50:25.610Z,8.41
2023-04-16T04:52:52.072Z,8.42
2023-04-16T04:55:18.635Z,8.46
2023-04-16T04:57:45.517Z,8.43
2023-04-16T05:00:12.438Z,8.43
2023-04-16T05:02:44.704Z,8.47
2023-04-16T05:05:11.475Z,8.43
2023-04-16T05:07:38.040Z,8.42
2023-04-16T05:10:04.915Z,8.41
2023-04-16T05:12:31.566Z,8.39
2023-04-16T05:14:58.113Z,8.26
2023-04-16T05:17:24.705Z,8.18
2023-04-16T05:19:52.139Z,8.18
2023-04-16T05:22:19.063Z,8.14
2023-04-16T05:24:45.843Z,8.17
2023-04-16T05:27:12.349Z,8.22
2023-04-16T05:29:38.904Z,8.29
2023-04-16T05:32:05.578Z,8.32
2023-04-16T05:34:32.387Z,8.36
2023-04-16T05:36:58.928Z,8.43
2023-04-16T05:39:25.673Z,8.42
2023-04-16T05:41:52.325Z,8.36
2023-04-16T05:44:18.787Z,8.33
2023-04-16T05:46:45.430Z,8.36
2023-04-16T05:49:12.140Z,8.26
2023-04-16T05:51:39.007Z,8.31
2023-04-16T05:54:05.508Z,8.31
2023-04-16T05:56:32.168Z,8.37
2023-04-16T05:58:58.584Z,8.39
2023-04-16T06:01:25.430Z,8.41
2023-04-16T06:03:52.191Z,8.45
2023-04-16T06:06:18.822Z,8.40
2023-04-16T06:08:45.244Z,8.48
2023-04-16T06:11:12.229Z,8.46
2023-04-16T06:13:39.040Z,8.41
2023-04-16T06:16:06.292Z,8.49
2023-04-16T06:18:32.802Z,8.43
2023-04-16T06:20:59.608Z,8.40
2023-04-16T06:23:26.191Z,8.43
2023-04-16T06:25:52.749Z,8.50
2023-04-16T06:28:19.228Z,8.48
2023-04-16T06:30:46.766Z,8.39
2023-04-16T06:33:13.609Z,8.41
2023-04-16T06:35:40.121Z,8.48
2023-04-16T06:38:06.878Z,8.53
2023-04-16T06:40:33.490Z,8.39
2023-04-16T06:43:00.041Z,8.47
2023-04-16T06:45:26.808Z,8.49
2023-04-16T06:47:53.369Z,8.53
2023-04-16T06:50:19.846Z,8.48
2023-04-16T06:52:46.632Z,8.44
2023-04-16T06:55:13.009Z,8.50
2023-04-16T06:57:40.784Z,8.50
2023-04-16T07:00:08.027Z,8.42
2023-04-16T07:02:35.044Z,8.47
2023-04-16T07:05:01.781Z,8.46
2023-04-16T07:07:28.253Z,8.55
2023-04-16T07:09:55.033Z,8.62
2023-04-16T07:12:22.836Z,8.62
2023-04-16T07:14:49.632Z,8.60
2023-04-16T07:17:16.282Z,8.62
2023-04-16T07:19:42.676Z,8.41
2023-04-16T07:22:09.250Z,8.51
2023-04-16T07:24:35.853Z,8.51
2023-04-16T07:27:02.397Z,8.56
2023-04-16T07:29:29.019Z,8.49
2023-04-16T07:31:55.673Z,8.58
2023-04-16T07:34:22.538Z,8.61
2023-04-16T07:36:48.990Z,8.51
2023-04-16T07:39:15.521Z,8.61
2023-04-16T07:41:43.054Z,8.75
2023-04-16T07:44:09.568Z,8.84
2023-04-16T07:46:43.615Z,8.82
2023-04-16T07:49:13.285Z,8.70
2023-04-16T07:51:39.767Z,8.81
2023-04-16T07:54:06.431Z,8.80
2023-04-16T07:56:32.923Z,8.94
2023-04-16T07:59:08.009Z,8.83
2023-04-16T08:01:45.493Z,8.86
2023-04-16T08:04:12.264Z,8.93
2023-04-16T08:06:39.001Z,8.89
2023-04-16T08:09:05.761Z,9.05
2023-04-16T08:11:32.311Z,8.99
2023-04-16T08:13:58.918Z,8.89
2023-04-16T08:16:25.578Z,8.89
2023-04-16T08:18:52.247Z,8.83
2023-04-16T08:21:18.778Z,8.79
2023-04-16T08:23:45.424Z,8.81
2023-04-16T08:26:11.859Z,8.76
2023-04-16T08:28:38.544Z,8.71
2023-04-16T08:31:05.371Z,8.70
2023-04-16T08:33:32.130Z,8.67
2023-04-16T08:35:58.782Z,8.70
2023-04-16T08:38:26.289Z,8.65
2023-04-16T08:40:54.972Z,8.65
2023-04-16T08:43:23.715Z,8.67
2023-04-16T08:45:50.902Z,8.75
2023-04-16T08:48:20.591Z,8.74
2023-04-16T08:50:52.294Z,8.81
2023-04-16T08:53:29.575Z,8.76
2023-04-16T08:55:59.613Z,8.89
2023-04-16T08:58:29.584Z,8.83
2023-04-16T09:00:56.312Z,8.89
2023-04-16T09:03:22.959Z,8.79
2023-04-16T09:05:49.574Z,8.78
2023-04-16T09:08:17.303Z,8.85
2023-04-16T09:10:43.793Z,8.84
2023-04-16T09:13:11.635Z,8.81
2023-04-16T09:15:39.373Z,8.77
2023-04-16T09:18:05.994Z,8.85
2023-04-16T09:20:32.523Z,8.81
2023-04-16T09:22:59.007Z,8.71
2023-04-16T09:25:26.270Z,8.79
2023-04-16T09:27:52.749Z,8.85
2023-04-16T09:30:21.608Z,8.86
2023-04-16T09:32:48.852Z,8.85
2023-04-16T09:35:15.769Z,8.78
2023-04-16T09:37:42.368Z,8.75
2023-04-16T09:40:09.616Z,8.84
2023-04-16T09:42:37.152Z,8.81
2023-04-16T09:45:05.682Z,8.87
2023-04-16T09:47:44.772Z,8.75
2023-04-16T09:50:19.117Z,8.70
2023-04-16T09:52:50.114Z,8.76
2023-04-16T09:55:16.715Z,8.69
2023-04-16T09:57:43.286Z,8.73
2023-04-16T10:00:10.654Z,8.81
2023-04-16T10:02:42.071Z,8.79
2023-04-16T10:05:09.472Z,8.74
2023-04-16T10:07:37.139Z,8.91
2023-04-16T10:10:05.002Z,8.84
2023-04-16T10:12:32.659Z,8.96
2023-04-16T10:14:59.279Z,8.91
2023-04-16T10:17:26.860Z,8.95
2023-04-16T10:19:54.661Z,8.95
2023-04-16T10:22:21.362Z,8.99
2023-04-16T10:24:48.819Z,9.08
2023-04-16T10:27:16.598Z,9.11
2023-04-16T10:29:44.537Z,9.00
2023-04-16T10:32:11.779Z,8.99
2023-04-16T10:34:39.001Z,8.96
2023-04-16T10:37:05.513Z,8.96
2023-04-16T10:39:37.416Z,9.04
2023-04-16T10:42:12.317Z,9.11
2023-04-16T10:44:42.799Z,9.13
2023-04-16T10:47:13.097Z,9.12
2023-04-16T10:49:40.436Z,9.23
2023-04-16T10:52:17.030Z,9.20
2023-04-16T10:54:43.845Z,9.16
2023-04-16T10:57:15.994Z,9.16
2023-04-16T10:59:43.994Z,9.17
2023-04-16T11:02:18.915Z,9.24
2023-04-16T11:04:47.589Z,9.24
2023-04-16T11:07:22.551Z,9.26
2023-04-16T11:09:52.099Z,9.25
2023-04-16T11:12:27.664Z,9.31
2023-04-16T11:14:59.337Z,9.42
2023-04-16T11:17:29.562Z,9.41
2023-04-16T11:19:56.451Z,9.47
2023-04-16T11:22:23.018Z,9.54
2023-04-16T11:24:57.134Z,9.59
2023-04-16T11:27:24.465Z,9.60
2023-04-16T11:30:02.032Z,9.48
2023-04-16T11:32:32.592Z,9.60
2023-04-16T11:35:03.388Z,9.60
2023-04-16T11:37:34.829Z,9.65
2023-04-16T11:40:04.753Z,9.67
2023-04-16T11:42:31.254Z,9.67
2023-04-16T11:45:00.581Z,9.66
2023-04-16T11:47:27.614Z,9.80
2023-04-16T11:49:54.200Z,9.85
2023-04-16T11:52:32.379Z,9.65
2023-04-16T11:54:59.829Z,9.77
2023-04-16T11:57:31.083Z,9.97
2023-04-16T12:00:01.635Z,10.09
2023-04-16T12:02:43.159Z,10.21
2023-04-16T12:05:28.701Z,10.21
2023-04-16T12:07:56.203Z,10.30
2023-04-16T12:10:22.753Z,10.28
2023-04-16T12:12:49.543Z,10.25
2023-04-16T12:15:16.519Z,10.34
2023-04-16T12:17:43.174Z,10.33
2023-04-16T12:20:11.996Z,10.38
2023-04-16T12:22:46.898Z,10.34
2023-04-16T12:25:15.521Z,10.27
2023-04-16T12:27:53.266Z,10.26
2023-04-16T12:30:22.870Z,10.40
2023-04-16T12:32:52.248Z,10.20
2023-04-16T12:35:33.117Z,10.20
2023-04-16T12:37:59.753Z,10.29
2023-04-16T12:40:26.827Z,10.28
2023-04-16T12:42:53.265Z,10.27
2023-04-16T12:45:19.937Z,10.41
2023-04-16T12:47:46.990Z,10.44
2023-04-16T12:50:13.629Z,10.31
2023-04-16T12:52:40.110Z,10.50
2023-04-16T12:55:07.048Z,10.38
2023-04-16T12:57:33.599Z,10.44
2023-04-16T13:00:00.068Z,10.33
2023-04-16T13:02:27.138Z,10.21
2023-04-16T13:04:54.290Z,10.33
2023-04-16T13:07:21.234Z,10.27
2023-04-16T13:09:47.891Z,10.34
2023-04-16T13:12:14.378Z,10.32
2023-04-16T13:14:43.307Z,10.25
2023-04-16T13:17:11.478Z,10.26
2023-04-16T13:19:38.132Z,10.29
2023-04-16T13:22:04.584Z,10.33
2023-04-16T13:24:31.501Z,10.34
2023-04-16T13:26:58.216Z,10.33
2023-04-16T13:29:24.752Z,10.43
2023-04-16T13:31:51.432Z,10.38
2023-04-16T13:34:18.209Z,10.28
2023-04-16T13:36:44.936Z,10.23
2023-04-16T13:39:11.780Z,10.24
2023-04-16T13:41:38.738Z,10.15
2023-04-16T13:44:05.844Z,10.20
2023-04-16T13:46:32.565Z,10.18
2023-04-16T13:48:59.380Z,10.18
2023-04-16T13:51:27.239Z,10.11
2023-04-16T13:53:55.649Z,10.15
2023-04-16T13:56:22.383Z,10.15
2023-04-16T13:58:49.426Z,10.14
2023-04-16T14:01:17.159Z,10.22
2023-04-16T14:03:44.153Z,10.16
2023-04-16T14:06:11.101Z,10.07
2023-04-16T14:08:38.181Z,10.15
2023-04-16T14:11:06.477Z,10.04
2023-04-16T14:13:33.181Z,10.03
2023-04-16T14:15:59.836Z,9.97
2023-04-16T14:18:26.468Z,9.90
2023-04-16T14:20:53.027Z,9.98
2023-04-16T14:23:19.434Z,10.00
2023-04-16T14:25:46.190Z,10.07
2023-04-16T14:28:14.313Z,10.08
2023-04-16T14:30:42.462Z,10.15
2023-04-16T14:33:09.126Z,10.12
2023-04-16T14:35:36.132Z,10.10
2023-04-16T14:38:02.747Z,10.14
2023-04-16T14:40:29.515Z,10.15
2023-04-16T14:42:56.134Z,10.15
2023-04-16T14:45:23.088Z,10.20
2023-04-16T14:47:50.863Z,10.25
2023-04-16T14:50:17.499Z,10.37
2023-04-16T14:52:44.270Z,10.41
2023-04-16T14:55:10.795Z,10.25
2023-04-16T14:57:38.510Z,10.25
2023-04-16T15:00:11.915Z,10.20
2023-04-16T15:02:38.808Z,10.32
2023-04-16T15:05:07.728Z,10.39
2023-04-16T15:07:34.221Z,10.42
2023-04-16T15:10:01.013Z,10.46
2023-04-16T15:12:27.655Z,10.32
2023-04-16T15:14:54.364Z,10.39
2023-04-16T15:17:22.980Z,10.47
2023-04-16T15:19:52.249Z,10.41
2023-04-16T15:22:19.596Z,10.48
2023-04-16T15:24:46.599Z,10.44
2023-04-16T15:27:14.787Z,10.48
2023-04-16T15:29:41.704Z,10.42
2023-04-16T15:32:08.541Z,10.50
2023-04-16T15:34:35.071Z,10.57
2023-04-16T15:37:01.818Z,10.62
2023-04-16T15:39:28.235Z,10.62
2023-04-16T15:42:01.493Z,10.70
2023-04-16T15:44:28.418Z,10.67
2023-04-16T15:46:54.917Z,10.57
2023-04-16T15:49:21.372Z,10.57
2023-04-16T15:51:48.117Z,10.55
2023-04-16T15:54:14.809Z,10.39
2023-04-16T15:56:41.635Z,10.60
2023-04-16T15:59:08.300Z,10.51
2023-04-16T16:01:34.918Z,10.59
2023-04-16T16:04:07.688Z,10.61
2023-04-16T16:06:34.592Z,10.55
2023-04-16T16:09:01.670Z,10.48
2023-04-16T16:11:28.411Z,10.61
2023-04-16T16:13:55.096Z,10.56
2023-04-16T16:16:21.926Z,10.63
2023-04-16T16:18:48.848Z,10.65
2023-04-16T16:21:15.394Z,10.64
2023-04-16T16:23:41.963Z,10.59
2023-04-16T16:26:09.395Z,10.57
2023-04-16T16:28:39.075Z,10.64
2023-04-16T16:31:06.774Z,10.64
2023-04-16T16:33:33.379Z,10.64
2023-04-16T16:35:59.977Z,10.58
2023-04-16T16:38:27.155Z,10.55
2023-04-16T16:40:53.688Z,10.55
2023-04-16T16:43:20.331Z,10.52
2023-04-16T16:45:47.245Z,10.50
2023-04-16T16:48:13.838Z,10.42
2023-04-16T16:50:40.672Z,10.42
2023-04-16T16:53:07.514Z,10.46
2023-04-16T16:55:35.085Z,10.44
2023-04-16T16:58:01.947Z,10.44
2023-04-16T17:00:28.952Z,10.44
2023-04-16T17:02:55.479Z,10.38
2023-04-16T17:05:22.504Z,10.38
2023-04-16T17:07:49.065Z,10.36
2023-04-16T17:10:21.907Z,10.35
2023-04-16T17:12:49.401Z,10.41
2023-04-16T17:15:17.551Z,10.36
2023-04-16T17:17:46.169Z,10.41
2023-04-16T17:20:12.667Z,10.34
2023-04-16T17:22:39.931Z,10.32
2023-04-16T17:25:07.991Z,10.37
2023-04-16T17:27:34.761Z,10.36
2023-04-16T17:30:02.480Z,10.37
2023-04-16T17:32:29.950Z,10.37
2023-04-16T17:34:56.656Z,10.37
2023-04-16T17:37:23.474Z,10.33
2023-04-16T17:39:50.445Z,10.33
2023-04-16T17:42:17.589Z,10.34
2023-04-16T17:44:44.392Z,10.31
2023-04-16T17:47:12.667Z,10.33
2023-04-16T17:49:39.374Z,10.36
2023-04-16T17:52:06.419Z,10.35
2023-04-16T17:54:32.874Z,10.35
2023-04-16T17:56:59.516Z,10.36
2023-04-16T17:59:26.388Z,10.33
2023-04-16T18:01:53.151Z,10.35
2023-04-16T18:04:19.899Z,10.28
2023-04-16T18:06:46.651Z,10.29
2023-04-16T18:09:14.288Z,10.35
2023-04-16T18:11:40.798Z,10.32
2023-04-16T18:14:13.189Z,10.29
2023-04-16T18:16:51.306Z,10.28
2023-04-16T18:19:20.836Z,10.26
2023-04-16T18:21:47.482Z,10.26
2023-04-16T18:24:15.072Z,10.23
2023-04-16T18:26:41.614Z,10.24
2023-04-16T18:29:09.146Z,10.24
2023-04-16T18:31:36.093Z,10.17
2023-04-16T18:34:02.677Z,10.18
2023-04-16T18:36:29.432Z,10.16
2023-04-16T18:39:15.642Z,10.15
2023-04-16T18:41:43.638Z,10.14
2023-04-16T18:44:10.892Z,10.11
2023-04-16T18:46:37.460Z,10.15
2023-04-16T18:49:04.069Z,10.15
2023-04-16T18:51:30.723Z,10.14
2023-04-16T18:53:57.347Z,10.11
2023-04-16T18:56:23.893Z,10.11
2023-04-16T18:58:50.540Z,10.14
2023-04-16T19:01:17.945Z,10.13
2023-04-16T19:03:45.354Z,10.06
2023-04-16T19:06:11.904Z,10.08
2023-04-16T19:08:38.374Z,10.07
2023-04-16T19:11:04.876Z,9.97
2023-04-16T19:13:32.305Z,9.96
2023-04-16T19:15:59.761Z,9.95
2023-04-16T19:18:26.620Z,9.97
2023-04-16T19:21:00.489Z,9.93
2023-04-16T19:23:27.384Z,9.98
2023-04-16T19:25:56.125Z,9.94
2023-04-16T19:28:23.439Z,9.93
2023-04-16T19:30:51.282Z,10.01
2023-04-16T19:33:18.473Z,10.00
2023-04-16T19:35:46.278Z,9.97
2023-04-16T19:38:13.268Z,9.93
2023-04-16T19:40:40.385Z,9.94
2023-04-16T19:43:06.897Z,9.91
2023-04-16T19:45:33.550Z,9.97
2023-04-16T19:48:00.293Z,9.87
2023-04-16T19:50:27.036Z,9.89
2023-04-16T19:52:53.504Z,9.82
2023-04-16T19:55:20.044Z,9.87
2023-04-16T19:57:47.808Z,9.90
2023-04-16T20:00:14.798Z,9.84
2023-04-16T20:02:41.413Z,9.92
2023-04-16T20:05:08.517Z,9.84
2023-04-16T20:07:35.413Z,9.86
2023-04-16T20:10:02.865Z,9.91
2023-04-16T20:12:29.453Z,9.83
2023-04-16T20:14:55.977Z,9.86
2023-04-16T20:17:23.073Z,9.85
2023-04-16T20:19:51.123Z,9.83
2023-04-16T20:22:18.572Z,9.81
2023-04-16T20:24:47.818Z,9.83
2023-04-16T20:27:15.261Z,9.83
2023-04-16T20:29:42.214Z,9.86
2023-04-16T20:32:08.859Z,9.83
2023-04-16T20:34:36.528Z,9.84
2023-04-16T20:37:03.039Z,9.85
2023-04-16T20:39:34.090Z,9.88
2023-04-16T20:42:00.812Z,9.89
2023-04-16T20:44:33.322Z,9.89
2023-04-16T20:47:00.132Z,9.84
2023-04-16T20:49:26.646Z,9.85
2023-04-16T20:51:53.321Z,9.81
2023-04-16T20:54:19.949Z,9.79
2023-04-16T20:56:47.139Z,9.77
2023-04-16T20:59:13.760Z,9.77
2023-04-16T21:01:40.581Z,9.77
2023-04-16T21:04:07.876Z,9.77
2023-04-16T21:06:38.443Z,9.84
2023-04-16T21:09:05.837Z,9.87
2023-04-16T21:11:34.557Z,9.88
2023-04-16T21:14:01.810Z,9.82
2023-04-16T21:16:29.067Z,9.79
2023-04-16T21:18:56.364Z,9.83
2023-04-16T21:21:24.039Z,9.81
2023-04-16T21:23:50.925Z,9.78
2023-04-16T21:26:17.498Z,9.80
2023-04-16T21:28:44.152Z,9.80
2023-04-16T21:31:11.038Z,9.76
2023-04-16T21:33:37.649Z,9.74
2023-04-16T21:36:04.235Z,9.75
2023-04-16T21:38:30.819Z,9.73
2023-04-16T21:40:57.401Z,9.68
2023-04-16T21:43:24.184Z,9.64
2023-04-16T21:45:53.766Z,9.53
2023-04-16T21:48:21.034Z,9.61
2023-04-16T21:50:47.659Z,9.53
2023-04-16T21:53:14.184Z,9.52
2023-04-16T21:55:41.728Z,9.51
2023-04-16T21:58:08.156Z,9.55
2023-04-16T22:00:34.788Z,9.58
2023-04-16T22:03:01.394Z,9.47
2023-04-16T22:05:27.991Z,9.52
2023-04-16T22:07:54.548Z,9.46
2023-04-16T22:10:21.182Z,9.51
2023-04-16T22:12:47.932Z,9.42
2023-04-16T22:15:14.661Z,9.46
2023-04-16T22:17:41.421Z,9.46
2023-04-16T22:20:14.529Z,9.42
2023-04-16T22:22:42.318Z,9.43
2023-04-16T22:25:09.665Z,9.42
2023-04-16T22:27:36.646Z,9.38
2023-04-16T22:30:04.208Z,9.41
2023-04-16T22:32:30.865Z,9.43
2023-04-16T22:34:57.736Z,9.43
2023-04-16T22:37:24.607Z,9.35
2023-04-16T22:39:51.370Z,9.37
2023-04-16T22:42:17.857Z,9.39
2023-04-16T22:44:44.505Z,9.32
2023-04-16T22:47:10.946Z,9.34
2023-04-16T22:49:37.634Z,9.38
2023-04-16T22:52:04.283Z,9.38
2023-04-16T22:54:31.924Z,9.40
2023-04-16T22:56:58.713Z,9.34
2023-04-16T22:59:25.452Z,9.36
2023-04-16T23:01:52.851Z,9.36
2023-04-16T23:04:19.807Z,9.30
2023-04-16T23:06:46.325Z,9.28
2023-04-16T23:09:13.323Z,9.35
2023-04-16T23:11:40.394Z,9.31
2023-04-16T23:14:07.581Z,9.32
2023-04-16T23:16:34.173Z,9.34
2023-04-16T23:19:00.981Z,9.37
2023-04-16T23:21:27.393Z,9.31
2023-04-16T23:23:54.283Z,9.36
2023-04-16T23:26:21.028Z,9.33
2023-04-16T23:28:47.489Z,9.34
2023-04-16T23:31:14.149Z,9.33
2023-04-16T23:33:40.856Z,9.39
2023-04-16T23:36:07.889Z,9.42
2023-04-16T23:38:34.529Z,9.35
2023-04-16T23:41:01.030Z,9.38
2023-04-16T23:43:27.822Z,9.39
2023-04-16T23:45:54.263Z,9.34
2023-04-16T23:48:21.078Z,9.38
2023-04-16T23:50:47.558Z,9.36
2023-04-16T23:53:14.018Z,9.37
2023-04-16T23:55:40.760Z,9.32
2023-04-16T23:58:07.357Z,9.35
